createdAt,value
2023-04-28T00:01:30.878Z,94445.03
2023-04-28T00:03:58.914Z,94443.53
2023-04-28T00:06:26.081Z,94437.16
2023-04-28T00:08:53.026Z,94438.13
2023-04-28T00:11:20.009Z,94442.69
2023-04-28T00:13:46.868Z,94443.72
2023-04-28T00:16:13.720Z,94433.84
2023-04-28T00:18:40.591Z,94441.06
2023-04-28T00:21:07.511Z,94440.09
2023-04-28T00:23:34.382Z,94448.97
2023-04-28T00:26:01.399Z,94451.75
2023-04-28T00:28:34.289Z,94431.25
2023-04-28T00:31:02.658Z,94439.13
2023-04-28T00:33:29.582Z,94437.31
2023-04-28T00:36:01.496Z,94433.53
2023-04-28T00:38:28.887Z,94437.16
2023-04-28T00:40:55.914Z,94444.38
2023-04-28T00:43:22.769Z,94445.50
2023-04-28T00:45:52.890Z,94437.31
2023-04-28T00:48:20.354Z,94434.03
2023-04-28T00:50:48.789Z,94437.81
2023-04-28T00:53:16.184Z,94410.59
2023-04-28T00:55:43.042Z,94422.22
2023-04-28T00:58:10.030Z,94421.06
2023-04-28T01:00:36.860Z,94408.94
2023-04-28T01:03:03.902Z,94413.69
2023-04-28T01:05:31.349Z,94401.72
2023-04-28T01:07:58.789Z,94396.81
2023-04-28T01:10:25.708Z,94407.94
2023-04-28T01:12:52.514Z,94395.19
2023-04-28T01:15:20.939Z,94391.72
2023-04-28T01:17:48.412Z,94398.75
2023-04-28T01:20:15.696Z,94399.75
2023-04-28T01:22:42.653Z,94381.06
2023-04-28T01:25:09.707Z,94390.72
2023-04-28T01:27:36.590Z,94386.78
2023-04-28T01:30:03.824Z,94376.97
2023-04-28T01:32:30.725Z,94385.00
2023-04-28T01:34:57.610Z,94383.03
2023-04-28T01:37:24.618Z,94394.50
2023-04-28T01:39:51.459Z,94385.00
2023-04-28T01:42:18.309Z,94390.59
2023-04-28T01:44:45.142Z,94404.84
2023-04-28T01:47:12.013Z,94389.09
2023-04-28T01:49:38.855Z,94397.78
2023-04-28T01:52:05.900Z,94379.09
2023-04-28T01:54:32.798Z,94387.28
2023-04-28T01:56:59.620Z,94398.44
2023-04-28T01:59:26.629Z,94395.97
2023-04-28T02:01:53.568Z,94401.22
2023-04-28T02:04:20.555Z,94361.75
2023-04-28T02:06:47.440Z,94380.09
2023-04-28T02:09:14.296Z,94387.28
2023-04-28T02:11:41.355Z,94394.53
2023-04-28T02:14:08.299Z,94390.59
2023-04-28T02:16:35.207Z,94400.06
2023-04-28T02:19:02.060Z,94389.28
2023-04-28T02:21:28.995Z,94388.13
2023-04-28T02:23:56.252Z,94390.25
2023-04-28T02:26:23.333Z,94395.66
2023-04-28T02:28:50.547Z,94395.34
2023-04-28T02:31:18.161Z,94388.28
2023-04-28T02:33:45.081Z,94384.84
2023-04-28T02:36:12.037Z,94385.50
2023-04-28T02:38:38.975Z,94388.91
2023-04-28T02:41:09.422Z,94384.00
2023-04-28T02:43:37.341Z,94381.38
2023-04-28T02:46:05.274Z,94377.44
2023-04-28T02:48:33.640Z,94379.25
2023-04-28T02:51:00.736Z,94365.94
2023-04-28T02:53:28.060Z,94379.09
2023-04-28T02:55:54.993Z,94383.84
2023-04-28T02:58:21.825Z,94393.19
2023-04-28T03:00:48.946Z,94391.69
2023-04-28T03:03:16.187Z,94405.47
2023-04-28T03:05:43.225Z,94395.13
2023-04-28T03:08:10.083Z,94397.44
2023-04-28T03:10:36.968Z,94386.94
2023-04-28T03:13:03.863Z,94384.47
2023-04-28T03:15:31.004Z,94373.84
2023-04-28T03:17:57.961Z,94380.72
2023-04-28T03:20:24.887Z,94389.22
2023-04-28T03:22:51.707Z,94385.00
2023-04-28T03:25:18.642Z,94377.44
2023-04-28T03:27:45.716Z,94383.34
2023-04-28T03:30:12.930Z,94387.41
2023-04-28T03:32:39.838Z,94389.06
2023-04-28T03:35:06.958Z,94382.38
2023-04-28T03:37:33.955Z,94390.22
2023-04-28T03:40:00.785Z,94384.63
2023-04-28T03:42:27.679Z,94370.03
2023-04-28T03:44:54.569Z,94376.41
2023-04-28T03:47:21.520Z,94355.94
2023-04-28T03:49:48.410Z,94367.91
2023-04-28T03:52:15.225Z,94382.63
2023-04-28T03:54:42.079Z,94373.63
2023-04-28T03:57:08.916Z,94366.41
2023-04-28T03:59:35.902Z,94373.47
2023-04-28T04:02:02.858Z,94377.38
2023-04-28T04:04:29.861Z,94375.28
2023-04-28T04:06:56.988Z,94387.22
2023-04-28T04:09:23.923Z,94380.84
2023-04-28T04:11:50.771Z,94369.53
2023-04-28T04:14:18.096Z,94379.03
2023-04-28T04:16:47.326Z,94370.03
2023-04-28T04:19:14.387Z,94371.31
2023-04-28T04:21:41.332Z,94362.31
2023-04-28T04:24:08.288Z,94365.28
2023-04-28T04:26:35.139Z,94353.75
2023-04-28T04:29:01.992Z,94358.38
2023-04-28T04:31:28.963Z,94365.56
2023-04-28T04:33:55.852Z,94348.22
2023-04-28T04:36:22.888Z,94357.22
2023-04-28T04:38:49.866Z,94356.72
2023-04-28T04:41:17.152Z,94352.63
2023-04-28T04:43:44.013Z,94352.44
2023-04-28T04:46:10.912Z,94350.31
2023-04-28T04:48:37.833Z,94350.31
2023-04-28T04:51:04.929Z,94345.22
2023-04-28T04:53:31.993Z,94354.91
2023-04-28T04:55:58.987Z,94339.00
2023-04-28T04:58:25.988Z,94346.50
2023-04-28T05:00:52.818Z,94343.75
2023-04-28T05:03:19.823Z,94342.09
2023-04-28T05:05:47.180Z,94340.44
2023-04-28T05:08:14.089Z,94342.25
2023-04-28T05:10:41.132Z,94347.81
2023-04-28T05:13:07.985Z,94333.66
2023-04-28T05:15:34.924Z,94334.19
2023-04-28T05:18:06.764Z,94343.03
2023-04-28T05:20:33.679Z,94338.28
2023-04-28T05:23:00.610Z,94340.38
2023-04-28T05:25:27.515Z,94328.53
2023-04-28T05:27:54.375Z,94335.59
2023-04-28T05:30:21.323Z,94343.16
2023-04-28T05:32:48.185Z,94349.72
2023-04-28T05:35:15.459Z,94350.31
2023-04-28T05:37:43.861Z,94335.53
2023-04-28T05:40:11.410Z,94336.50
2023-04-28T05:42:38.398Z,94348.66
2023-04-28T05:45:07.103Z,94342.09
2023-04-28T05:47:33.997Z,94359.75
2023-04-28T05:50:00.881Z,94351.56
2023-04-28T05:52:28.161Z,94340.25
2023-04-28T05:54:55.163Z,94338.09
2023-04-28T05:57:22.653Z,94332.78
2023-04-28T05:59:49.585Z,94323.72
2023-04-28T06:02:23.200Z,94341.31
2023-04-28T06:04:51.267Z,94338.97
2023-04-28T06:07:18.500Z,94344.81
2023-04-28T06:09:45.714Z,94333.31
2023-04-28T06:12:12.653Z,94329.38
2023-04-28T06:14:40.492Z,94343.47
2023-04-28T06:17:07.451Z,94335.47
2023-04-28T06:19:34.329Z,94340.03
2023-04-28T06:22:01.156Z,94342.31
2023-04-28T06:24:28.097Z,94343.13
2023-04-28T06:26:55.795Z,94338.69
2023-04-28T06:29:24.247Z,94331.56
2023-04-28T06:31:52.952Z,94328.53
2023-04-28T06:34:19.945Z,94339.63
2023-04-28T06:36:46.803Z,94340.91
2023-04-28T06:39:13.711Z,94343.88
2023-04-28T06:41:41.357Z,94347.59
2023-04-28T06:44:08.423Z,94342.19
2023-04-28T06:46:37.591Z,94344.38
2023-04-28T06:49:04.710Z,94341.22
2023-04-28T06:51:34.850Z,94342.34
2023-04-28T06:54:01.803Z,94346.78
2023-04-28T06:56:29.059Z,94321.53
2023-04-28T06:58:57.410Z,94333.28
2023-04-28T07:01:24.265Z,94337.13
2023-04-28T07:03:51.683Z,94328.88
2023-04-28T07:06:18.628Z,94331.88
2023-04-28T07:08:45.579Z,94319.06
2023-04-28T07:11:12.530Z,94321.97
2023-04-28T07:13:39.454Z,94303.91
2023-04-28T07:16:06.678Z,94314.34
2023-04-28T07:18:33.640Z,94317.81
2023-04-28T07:21:01.819Z,94314.91
2023-04-28T07:23:29.699Z,94308.41
2023-04-28T07:25:58.412Z,94297.75
2023-04-28T07:28:25.299Z,94320.28
2023-04-28T07:30:52.238Z,94311.03
2023-04-28T07:33:19.240Z,94309.56
2023-04-28T07:35:46.183Z,94321.94
2023-04-28T07:38:13.259Z,94301.84
2023-04-28T07:40:40.236Z,94305.13
2023-04-28T07:43:07.560Z,94328.38
2023-04-28T07:45:34.558Z,94318.81
2023-04-28T07:48:01.449Z,94311.91
2023-04-28T07:50:28.929Z,94310.03
2023-04-28T07:52:55.801Z,94322.00
2023-04-28T07:55:22.730Z,94308.75
2023-04-28T07:57:49.789Z,94300.84
2023-04-28T08:00:18.055Z,94319.34
2023-04-28T08:02:45.072Z,94320.16
2023-04-28T08:05:12.669Z,94323.78
2023-04-28T08:07:39.676Z,94321.81
2023-04-28T08:10:07.325Z,94342.06
2023-04-28T08:12:34.176Z,94337.25
2023-04-28T08:15:01.644Z,94312.44
2023-04-28T08:17:28.531Z,94322.91
2023-04-28T08:19:55.486Z,94311.72
2023-04-28T08:22:22.394Z,94329.91
2023-04-28T08:24:49.252Z,94317.72
2023-04-28T08:27:16.630Z,94317.34
2023-04-28T08:29:43.505Z,94306.81
2023-04-28T08:32:10.422Z,94307.72
2023-04-28T08:34:37.437Z,94318.72
2023-04-28T08:37:04.595Z,94304.25
2023-04-28T08:39:32.035Z,94332.06
2023-04-28T08:41:58.969Z,94334.25
2023-04-28T08:44:26.523Z,94335.31
2023-04-28T08:46:58.692Z,94336.31
2023-04-28T08:49:36.012Z,94329.53
2023-04-28T08:52:04.632Z,94340.78
2023-04-28T08:54:32.910Z,94341.69
2023-04-28T08:57:01.394Z,94338.41
2023-04-28T08:59:28.500Z,94346.44
2023-04-28T09:01:55.440Z,94334.16
2023-04-28T09:04:22.670Z,94350.50
2023-04-28T09:06:49.836Z,94346.09
2023-04-28T09:09:32.622Z,94351.88
2023-04-28T09:12:03.207Z,94353.63
2023-04-28T09:14:33.312Z,94362.31
2023-04-28T09:17:01.115Z,94360.13
2023-04-28T09:19:36.472Z,94367.59
2023-04-28T09:22:17.569Z,94375.25
2023-04-28T09:24:54.276Z,94360.44
2023-04-28T09:27:29.846Z,94372.34
2023-04-28T09:29:56.859Z,94370.84
2023-04-28T09:32:24.707Z,94360.53
2023-04-28T09:34:57.111Z,94380.03
2023-04-28T09:37:31.910Z,94386.66
2023-04-28T09:40:09.891Z,94383.00
2023-04-28T09:42:46.828Z,94381.47
2023-04-28T09:45:15.866Z,94383.09
2023-04-28T09:47:48.163Z,94372.53
2023-04-28T09:50:17.763Z,94375.81
2023-04-28T09:52:57.404Z,94379.53
2023-04-28T09:55:25.233Z,94378.34
2023-04-28T09:57:55.527Z,94384.78
2023-04-28T10:00:23.658Z,94346.06
2023-04-28T10:02:52.202Z,94383.00
2023-04-28T10:05:20.355Z,94359.78
2023-04-28T10:07:47.457Z,94338.16
2023-04-28T10:10:15.136Z,94332.06
2023-04-28T10:12:42.519Z,94350.03
2023-04-28T10:15:10.893Z,94356.38
2023-04-28T10:17:39.470Z,94372.50
2023-04-28T10:20:07.322Z,94374.28
2023-04-28T10:23:04.262Z,94370.47
2023-04-28T10:25:35.376Z,94369.22
2023-04-28T10:28:07.861Z,94385.97
2023-04-28T10:30:36.073Z,94376.63
2023-04-28T10:33:09.711Z,94371.81
2023-04-28T10:35:40.870Z,94372.00
2023-04-28T10:38:13.927Z,94376.28
2023-04-28T10:40:44.765Z,94371.03
2023-04-28T10:43:28.875Z,94378.94
2023-04-28T10:46:01.836Z,94376.94
2023-04-28T10:48:34.807Z,94369.59
2023-04-28T10:51:04.632Z,94376.72
2023-04-28T10:53:44.372Z,94369.41
2023-04-28T10:56:25.076Z,94373.88
2023-04-28T10:59:02.622Z,94361.06
2023-04-28T11:01:32.539Z,94361.88
2023-04-28T11:04:24.762Z,94365.34
2023-04-28T11:07:13.729Z,94372.47
2023-04-28T11:09:42.068Z,94370.25
2023-04-28T11:12:11.456Z,94364.09
2023-04-28T11:14:41.017Z,94366.56
2023-04-28T11:17:11.524Z,94363.31
2023-04-28T11:19:42.236Z,94372.66
2023-04-28T11:22:16.873Z,94373.28
2023-04-28T11:25:01.205Z,94372.25
2023-04-28T11:27:33.936Z,94374.28
2023-04-28T11:30:01.840Z,94375.50
2023-04-28T11:32:31.637Z,94372.28
2023-04-28T11:34:58.613Z,94371.03
2023-04-28T11:37:25.795Z,94353.72
2023-04-28T11:39:53.504Z,94361.25
2023-04-28T11:42:20.702Z,94359.22
2023-04-28T11:44:54.698Z,94366.56
2023-04-28T11:47:33.080Z,94365.34
2023-04-28T11:50:00.223Z,94360.84
2023-04-28T11:52:27.815Z,94342.50
2023-04-28T11:54:58.921Z,94367.38
2023-04-28T11:57:26.953Z,94361.28
2023-04-28T11:59:54.393Z,94364.34
2023-04-28T12:02:30.278Z,94358.03
2023-04-28T12:05:06.240Z,94361.69
2023-04-28T12:07:43.851Z,94372.25
2023-04-28T12:10:19.997Z,94368.78
2023-04-28T12:12:52.585Z,94374.94
2023-04-28T12:15:22.430Z,94380.81
2023-04-28T12:17:51.296Z,94362.28
2023-04-28T12:20:36.820Z,94372.06
2023-04-28T12:23:03.932Z,94376.75
2023-04-28T12:25:31.009Z,94360.84
2023-04-28T12:28:04.511Z,94366.75
2023-04-28T12:30:34.578Z,94351.84
2023-04-28T12:33:02.106Z,94350.59
2023-04-28T12:35:29.858Z,94349.75
2023-04-28T12:37:59.132Z,94344.00
2023-04-28T12:40:26.399Z,94358.25
2023-04-28T12:42:54.261Z,94352.72
2023-04-28T12:45:21.134Z,94350.63
2023-04-28T12:47:48.478Z,94347.09
2023-04-28T12:50:15.569Z,94340.31
2023-04-28T12:52:42.637Z,94345.41
2023-04-28T12:55:10.073Z,94348.25
2023-04-28T12:57:39.277Z,94336.59
2023-04-28T13:00:09.583Z,94345.47
2023-04-28T13:02:37.066Z,94346.38
2023-04-28T13:05:04.274Z,94346.69
2023-04-28T13:07:32.112Z,94329.50
2023-04-28T13:09:59.546Z,94325.31
2023-04-28T13:12:26.637Z,94338.34
2023-04-28T13:14:53.487Z,94326.06
2023-04-28T13:17:20.356Z,94319.88
2023-04-28T13:19:48.065Z,94328.53
2023-04-28T13:22:17.136Z,94321.09
2023-04-28T13:24:44.360Z,94331.06
2023-04-28T13:27:11.594Z,94307.13
2023-04-28T13:29:38.552Z,94294.50
2023-04-28T13:32:06.117Z,94311.00
2023-04-28T13:34:33.489Z,94291.91
2023-04-28T13:37:00.379Z,94322.66
2023-04-28T13:39:27.202Z,94316.97
2023-04-28T13:41:54.066Z,94322.13
2023-04-28T13:44:21.356Z,94297.50
2023-04-28T13:46:48.440Z,94314.66
2023-04-28T13:49:15.568Z,94300.53
2023-04-28T13:51:42.915Z,94304.69
2023-04-28T13:54:11.589Z,94291.59
2023-04-28T13:56:38.726Z,94287.63
2023-04-28T13:59:05.661Z,94297.56
2023-04-28T14:01:32.547Z,94304.69
2023-04-28T14:03:59.797Z,94282.22
2023-04-28T14:06:27.833Z,94292.47
2023-04-28T14:08:54.778Z,94288.75
2023-04-28T14:11:21.730Z,94281.94
2023-04-28T14:13:48.576Z,94282.19
2023-04-28T14:16:15.445Z,94278.28
2023-04-28T14:18:42.259Z,94268.63
2023-04-28T14:21:09.173Z,94289.22
2023-04-28T14:23:36.082Z,94290.84
2023-04-28T14:26:03.046Z,94287.53
2023-04-28T14:28:29.936Z,94289.50
2023-04-28T14:30:56.886Z,94279.91
2023-04-28T14:33:24.456Z,94274.78
2023-04-28T14:35:51.389Z,94271.69
2023-04-28T14:38:18.243Z,94263.81
2023-04-28T14:40:45.184Z,94270.78
2023-04-28T14:43:12.014Z,94241.84
2023-04-28T14:45:39.014Z,94267.94
2023-04-28T14:48:07.714Z,94272.78
2023-04-28T14:50:34.675Z,94251.63
2023-04-28T14:53:05.760Z,94252.84
2023-04-28T14:55:33.687Z,94244.84
2023-04-28T14:58:00.555Z,94257.94
2023-04-28T15:00:27.437Z,94256.09
2023-04-28T15:02:54.441Z,94248.16
2023-04-28T15:05:21.399Z,94249.56
2023-04-28T15:07:48.444Z,94256.88
2023-04-28T15:10:15.489Z,94241.34
2023-04-28T15:12:42.881Z,94249.91
2023-04-28T15:15:10.404Z,94243.41
2023-04-28T15:17:37.284Z,94239.41
2023-04-28T15:20:05.986Z,94252.16
2023-04-28T15:22:32.961Z,94249.91
2023-04-28T15:25:00.354Z,94245.44
2023-04-28T15:27:27.231Z,94249.69
2023-04-28T15:29:54.338Z,94247.84
2023-04-28T15:32:21.728Z,94254.88
2023-04-28T15:34:49.112Z,94236.88
2023-04-28T15:37:37.844Z,94233.00
2023-04-28T15:40:06.015Z,94221.34
2023-04-28T15:42:33.172Z,94220.09
2023-04-28T15:45:00.180Z,94226.13
2023-04-28T15:47:26.971Z,94220.59
2023-04-28T15:49:53.872Z,94216.94
2023-04-28T15:52:22.576Z,94217.28
2023-04-28T15:54:49.697Z,94186.75
2023-04-28T15:57:16.734Z,94213.41
2023-04-28T15:59:43.595Z,94212.59
2023-04-28T16:02:10.459Z,94204.75
2023-04-28T16:04:37.571Z,94216.41
2023-04-28T16:07:04.670Z,94212.44
2023-04-28T16:09:31.842Z,94197.88
2023-04-28T16:11:59.922Z,94205.28
2023-04-28T16:14:27.318Z,94202.66
2023-04-28T16:16:54.439Z,94188.13
2023-04-28T16:19:22.487Z,94194.69
2023-04-28T16:21:49.358Z,94193.78
2023-04-28T16:24:16.183Z,94193.66
2023-04-28T16:26:43.126Z,94178.59
2023-04-28T16:29:11.222Z,94178.38
2023-04-28T16:31:39.748Z,94186.25
2023-04-28T16:34:06.589Z,94192.47
2023-04-28T16:36:33.501Z,94202.56
2023-04-28T16:39:00.326Z,94201.19
2023-04-28T16:41:27.180Z,94188.47
2023-04-28T16:43:54.090Z,94191.72
2023-04-28T16:46:21.187Z,94212.69
2023-04-28T16:48:48.076Z,94202.06
2023-04-28T16:51:14.935Z,94200.56
2023-04-28T16:53:42.334Z,94195.72
2023-04-28T16:56:10.686Z,94210.50
2023-04-28T16:58:38.112Z,94207.63
2023-04-28T17:01:05.061Z,94196.97
2023-04-28T17:03:32.132Z,94209.59
2023-04-28T17:05:59.779Z,94207.47
2023-04-28T17:08:26.946Z,94203.84
2023-04-28T17:10:53.869Z,94194.69
2023-04-28T17:13:20.701Z,94217.72
2023-04-28T17:15:55.519Z,94205.09
2023-04-28T17:18:22.410Z,94195.13
2023-04-28T17:20:50.362Z,94209.47
2023-04-28T17:23:17.179Z,94199.25
2023-04-28T17:25:44.183Z,94191.16
2023-04-28T17:28:11.667Z,94200.59
2023-04-28T17:30:38.744Z,94201.03
2023-04-28T17:33:05.670Z,94191.19
2023-04-28T17:35:32.536Z,94220.69
2023-04-28T17:37:59.474Z,94215.00
2023-04-28T17:40:27.097Z,94206.50
2023-04-28T17:42:56.928Z,94192.63
2023-04-28T17:45:23.765Z,94184.78
2023-04-28T17:47:50.691Z,94196.88
2023-04-28T17:50:17.787Z,94212.84
2023-04-28T17:52:44.756Z,94208.88
2023-04-28T17:55:11.818Z,94216.25
2023-04-28T17:57:38.654Z,94212.75
2023-04-28T18:00:06.779Z,94260.31
2023-04-28T18:02:33.726Z,94278.97
2023-04-28T18:05:01.285Z,94265.09
2023-04-28T18:07:28.209Z,94260.44
2023-04-28T18:09:57.431Z,94267.06
2023-04-28T18:12:26.121Z,94277.72
2023-04-28T18:14:54.191Z,94271.81
2023-04-28T18:17:23.412Z,94285.56
2023-04-28T18:19:52.433Z,94302.28
2023-04-28T18:22:19.330Z,94287.19
2023-04-28T18:24:46.329Z,94279.03
2023-04-28T18:27:13.181Z,94277.59
2023-04-28T18:29:40.443Z,94280.25
2023-04-28T18:32:07.345Z,94285.56
2023-04-28T18:34:34.286Z,94277.63
2023-04-28T18:37:01.100Z,94286.81
2023-04-28T18:39:28.038Z,94300.50
2023-04-28T18:41:54.942Z,94290.50
2023-04-28T18:44:21.897Z,94295.41
2023-04-28T18:46:48.779Z,94304.56
2023-04-28T18:49:15.625Z,94280.16
2023-04-28T18:51:42.459Z,94295.25
2023-04-28T18:54:09.708Z,94310.72
2023-04-28T18:56:37.047Z,94306.25
2023-04-28T18:59:08.185Z,94319.28
2023-04-28T19:01:35.369Z,94330.91
2023-04-28T19:04:03.419Z,94320.50
2023-04-28T19:06:30.854Z,94323.56
2023-04-28T19:08:57.681Z,94310.72
2023-04-28T19:11:24.996Z,94328.06
2023-04-28T19:13:52.416Z,94320.72
2023-04-28T19:16:19.627Z,94324.19
2023-04-28T19:18:46.649Z,94330.31
2023-04-28T19:21:14.065Z,94326.63
2023-04-28T19:23:41.133Z,94333.34
2023-04-28T19:26:09.357Z,94350.66
2023-04-28T19:28:36.318Z,94347.00
2023-04-28T19:31:03.231Z,94342.31
2023-04-28T19:33:30.186Z,94353.94
2023-04-28T19:35:57.072Z,94373.09
2023-04-28T19:38:24.368Z,94375.94
2023-04-28T19:40:59.071Z,94387.13
2023-04-28T19:43:25.918Z,94374.66
2023-04-28T19:45:53.129Z,94372.25
2023-04-28T19:48:20.684Z,94367.56
2023-04-28T19:50:47.531Z,94342.47
2023-04-28T19:53:14.918Z,94365.91
2023-04-28T19:55:41.726Z,94360.81
2023-04-28T19:58:10.290Z,94366.09
2023-04-28T20:00:37.274Z,94360.19
2023-04-28T20:03:04.358Z,94365.50
2023-04-28T20:05:31.535Z,94353.22
2023-04-28T20:07:58.521Z,94363.56
2023-04-28T20:10:25.441Z,94373.16
2023-04-28T20:12:54.047Z,94378.66
2023-04-28T20:15:21.040Z,94364.56
2023-04-28T20:17:47.931Z,94378.22
2023-04-28T20:20:17.613Z,94362.72
2023-04-28T20:22:44.516Z,94369.66
2023-04-28T20:25:12.511Z,94379.00
2023-04-28T20:27:39.461Z,94361.03
2023-04-28T20:30:07.473Z,94369.84
2023-04-28T20:32:34.454Z,94371.03
2023-04-28T20:35:02.980Z,94349.41
2023-04-28T20:37:30.277Z,94376.72
2023-04-28T20:39:57.185Z,94369.16
2023-04-28T20:42:24.074Z,94382.63
2023-04-28T20:44:51.154Z,94372.22
2023-04-28T20:47:18.232Z,94374.88
2023-04-28T20:49:45.134Z,94374.44
2023-04-28T20:52:12.253Z,94360.97
2023-04-28T20:54:40.042Z,94379.91
2023-04-28T20:57:07.242Z,94373.19
2023-04-28T20:59:34.107Z,94379.28
2023-04-28T21:02:01.076Z,94357.69
2023-04-28T21:04:28.486Z,94358.50
2023-04-28T21:06:55.815Z,94383.34
2023-04-28T21:09:25.326Z,94382.50
2023-04-28T21:11:52.773Z,94392.69
2023-04-28T21:14:19.699Z,94384.94
2023-04-28T21:16:46.549Z,94387.75
2023-04-28T21:19:13.455Z,94379.63
2023-04-28T21:21:40.340Z,94367.75
2023-04-28T21:24:08.322Z,94374.06
2023-04-28T21:26:36.153Z,94357.94
2023-04-28T21:29:03.362Z,94377.50
2023-04-28T21:31:30.951Z,94389.47
2023-04-28T21:33:58.096Z,94387.66
2023-04-28T21:36:25.013Z,94382.38
2023-04-28T21:38:52.073Z,94387.22
2023-04-28T21:41:18.923Z,94376.22
2023-04-28T21:43:46.114Z,94385.19
2023-04-28T21:46:13.359Z,94366.00
2023-04-28T21:48:40.305Z,94376.41
2023-04-28T21:51:07.202Z,94359.81
2023-04-28T21:53:34.125Z,94366.75
2023-04-28T21:56:01.119Z,94375.31
2023-04-28T21:58:28.067Z,94361.25
2023-04-28T22:00:55.240Z,94380.59
2023-04-28T22:03:22.596Z,94374.47
2023-04-28T22:05:49.785Z,94384.00
2023-04-28T22:08:17.246Z,94373.59
2023-04-28T22:10:45.791Z,94385.78
2023-04-28T22:13:16.153Z,94385.00
2023-04-28T22:15:43.301Z,94387.16
2023-04-28T22:18:10.387Z,94368.19
2023-04-28T22:20:37.352Z,94380.38
2023-04-28T22:23:04.802Z,94376.22
2023-04-28T22:25:31.939Z,94375.22
2023-04-28T22:27:58.873Z,94376.63
2023-04-28T22:30:26.308Z,94384.28
2023-04-28T22:32:53.523Z,94379.75
2023-04-28T22:35:20.510Z,94382.53
2023-04-28T22:37:47.489Z,94380.28
2023-04-28T22:40:14.463Z,94370.41
2023-04-28T22:42:42.660Z,94368.22
2023-04-28T22:45:11.045Z,94384.19
2023-04-28T22:47:41.091Z,94381.66
2023-04-28T22:50:12.710Z,94373.94
2023-04-28T22:52:39.739Z,94375.13
2023-04-28T22:55:07.122Z,94363.69
2023-04-28T22:57:34.252Z,94359.63
2023-04-28T23:00:01.176Z,94343.84
2023-04-28T23:02:28.948Z,94355.91
2023-04-28T23:04:56.925Z,94364.91
2023-04-28T23:07:23.951Z,94358.59
2023-04-28T23:09:51.079Z,94353.19
2023-04-28T23:12:18.236Z,94368.03
2023-04-28T23:14:45.149Z,94350.66
2023-04-28T23:17:11.962Z,94341.06
2023-04-28T23:19:39.714Z,94351.69
2023-04-28T23:22:08.121Z,94341.50
2023-04-28T23:24:37.233Z,94323.72
2023-04-28T23:27:04.872Z,94345.69
2023-04-28T23:29:32.265Z,94363.06
2023-04-28T23:31:59.694Z,94365.06
2023-04-28T23:34:27.084Z,94347.91
2023-04-28T23:36:54.034Z,94360.91
2023-04-28T23:39:21.071Z,94356.00
2023-04-28T23:41:47.979Z,94357.19
2023-04-28T23:44:14.859Z,94350.28
2023-04-28T23:46:41.817Z,94355.50
2023-04-28T23:49:08.717Z,94360.84
2023-04-28T23:51:36.179Z,94356.75
2023-04-28T23:54:03.881Z,94338.59
2023-04-28T23:56:31.554Z,94353.03
2023-04-28T23:58:58.437Z,94348.22
